الصفحة الرئيسية
METAR-TAF:

METAR-TAF

مطار :

Subic Bay, الفلبين

دائرة عرض: 14-48N, خط طول: 120-16E, ارتفاع: 18 متر

مراقبة الطقس الحالي

تاريخ ووقت الإصدار 26 دقيقة قبل الساعة 09:00UTC
ريح 13 عقدة من الجنوب
درجة الحرارة 27°درجة مئوية
الرطوبة 89%
ضغط 1005 hPa
الرؤية: 9000 متر
غيوم متفرقة على ارتفاع 1800 قدم
غيوم مفككة على ارتفاع 8000 قدم
زخات في الجوار

METAR: RPLB 220900Z 17013KT 9000 VCSH SCT018 BKN080 27/25 Q1005 RMK A2968 VCSH NW, SW

زمن: 17:26 (09:26 UTC)

توقعات

تاريخ ووقت الإصدار 4ساعات و 26 دقيقة قبل الساعة 05:00UTC
التوقعات صالحة من22 الساعة 06 UTC إلى 23 الساعة 06 UTC
ريح 10 عقدة من الجنوب/الجنوب الغربي
الرؤية 10 كم أو أكثر
غيوم متفرقة على ارتفاع 2000 قدم
غيوم مفككة على ارتفاع 8000 قدم
مؤقت
بين 22 و 20 UTC
ريح 16 عقدة من الجنوب تتزايد حتى 26 عقدة
الرؤية: 8000 متر
غيوم متفرقة على ارتفاع 1800 قدم
ملبد بالغيوم على ارتفاع 8000 قدم
مطر خفيف

TAF: RPLB 220500Z 2206/2306 20010KT 9999 SCT020 BKN080 TX29/2206Z TN24/2221Z TEMPO 22206/2212 18016G26KT 8000 -RA SCT018 OVC080

أرصاد الطقس والتوقعات من أكثر من 4000 مطار (تقارير الطقس للمطار METAR والتنبؤ بالطقس بالمطارTAF).

المحطات المتاحة هي النقط الصفراء والحمراء على الخريطة.

حرك المؤشر فوق النقطة لمعرفة اسم المحطة.

ثم انقر لمعرفة أرصاد وتوقعات الطقس.

لتغيير الخارطة: اضغط على الأزرار الخضراء مع رمز الصليب الأسود للتكبير. على الزر الأخضر مع شرطة للتصغير، أو على الأسهم الخضراء للخرائط المجاورة.


METAR-TAF: